Forside
METAR-TAF:

METAR-TAF

Lufthavne :

Mauritius, Mauritius

Breddekreds: 20-26S, længdekreds: 057-40E, højde: 55 m

Aktuelle vejr

Denne rapport blev lavet for 47 minutter siden, kl. 02:00 UTC
Vind 13 kt fra østsydøst
Temperatur 22°C
Fugtighed 65%
Tryk 1025 hPa
Sigt 10 km eller mere
Spredte skyer i en højde af 1600 ft

METAR: FIMP 160200Z 12013KT 9999 SCT016 22/15 Q1025

Tid: 06:47 (02:47 UTC)

Vejrudsigter

Denne rapport blev lavet for 3 timer og 17 minutter siden, kl. 23:30 UTC
Foreløbig gælder fra 16 på 00 UTC til 17 på 06 UTC
Vind 13 kt fra østsydøst med vindstød på up til 25 kt
Sigt 10 km eller mere
Spredte skyer i en højde af 1700 ft
Midlertidig
fra 16 på 12 UTC til 16 på 18 UTC
Spredte skyer i en højde af 1500 ft
Brudte skyer i en højde af 5000 ft

TAF: FIMP 152330Z 1600/1706 11013G25KT 9999 SCT017 TEMPO 1612/1618 SCT015 BKN050

Vejrobservationer og prognoser fra mere end 4000 lufthavne (METAR og TAF).

De gule og røde prikker repræsenterer de meteorologiske stationer.

Flyt musen over at se navnet på stationen.

Så klik over at se vejr observationer og prognoser.

At skifte det kort: Klik på de grønne knapper med et sort kors for at zoome ind; på den grønne knap med en bindestreg for at zoome ud; eller på de grønne pile for tilstødende kort.


METAR-TAF: